createdAt,value
2019-02-07T00:02:12.398Z,18.57
2019-02-07T00:05:00.976Z,18.97
2019-02-07T00:07:41.746Z,18.53
2019-02-07T00:10:22.964Z,18.30
2019-02-07T00:13:04.570Z,18.97
2019-02-07T00:15:45.695Z,18.70
2019-02-07T00:18:27.183Z,19.70
2019-02-07T00:21:08.807Z,17.80
2019-02-07T00:23:50.356Z,18.50
2019-02-07T00:26:31.910Z,19.13
2019-02-07T00:29:12.920Z,18.63
2019-02-07T00:31:53.583Z,18.77
2019-02-07T00:34:34.302Z,19.77
2019-02-07T00:37:13.499Z,17.50
2019-02-07T00:39:54.794Z,18.77
2019-02-07T00:42:36.313Z,20.00
2019-02-07T00:45:17.892Z,18.17
2019-02-07T00:47:59.301Z,19.57
2019-02-07T00:50:40.753Z,18.63
2019-02-07T00:53:22.367Z,18.77
2019-02-07T00:56:03.456Z,17.23
2019-02-07T00:58:44.738Z,19.13
2019-02-07T01:01:25.540Z,18.63
2019-02-07T01:04:06.660Z,18.30
2019-02-07T01:06:48.045Z,18.90
2019-02-07T01:09:29.665Z,19.73
2019-02-07T01:12:10.585Z,17.30
2019-02-07T01:15:01.665Z,18.90
2019-02-07T01:17:35.244Z,19.20
2019-02-07T01:20:16.805Z,17.60
2019-02-07T01:22:57.570Z,17.93
2019-02-07T01:25:39.106Z,19.20
2019-02-07T01:28:20.731Z,20.13
2019-02-07T01:31:02.238Z,20.03
2019-02-07T01:33:43.665Z,18.60
2019-02-07T01:36:25.144Z,19.70
2019-02-07T01:39:06.242Z,18.57
2019-02-07T01:41:47.775Z,19.10
2019-02-07T01:44:29.213Z,19.97
2019-02-07T01:47:10.702Z,20.27
2019-02-07T01:49:51.405Z,18.23
2019-02-07T01:52:32.778Z,19.13
2019-02-07T01:55:14.355Z,18.57
2019-02-07T01:57:55.562Z,18.57
2019-02-07T02:00:35.401Z,18.13
2019-02-07T02:03:23.992Z,18.43
2019-02-07T02:06:04.854Z,18.60
2019-02-07T02:08:45.445Z,17.40
2019-02-07T02:11:26.825Z,18.57
2019-02-07T02:14:08.022Z,19.33
2019-02-07T02:16:49.545Z,17.37
2019-02-07T02:19:30.745Z,17.00
2019-02-07T02:22:12.082Z,18.40
2019-02-07T02:24:53.381Z,19.00
2019-02-07T02:27:34.702Z,18.77
2019-02-07T02:30:15.938Z,18.77
2019-02-07T02:32:57.327Z,17.47
2019-02-07T02:35:38.752Z,18.73
2019-02-07T02:38:19.541Z,17.80
2019-02-07T02:41:00.934Z,18.50
2019-02-07T02:43:41.607Z,18.07
2019-02-07T02:46:23.009Z,18.10
2019-02-07T02:49:04.510Z,18.53
2019-02-07T02:51:45.682Z,17.93
2019-02-07T02:57:36.492Z,17.77
2019-02-07T03:00:21.222Z,18.07
2019-02-07T03:03:20.762Z,18.03
2019-02-07T03:09:34.568Z,17.10
2019-02-07T03:12:34.572Z,17.67
2019-02-07T03:15:34.860Z,15.43
2019-02-07T03:18:34.515Z,14.97
2019-02-07T03:24:37.264Z,19.80
2019-02-07T03:27:37.014Z,17.87
2019-02-07T03:30:40.352Z,17.43
2019-02-07T03:33:41.609Z,17.37
2019-02-07T03:36:42.030Z,18.00
2019-02-07T03:39:42.592Z,14.60
2019-02-07T03:42:42.784Z,17.03
2019-02-07T03:45:45.372Z,16.77
2019-02-07T03:48:47.773Z,17.37
2019-02-07T03:51:46.673Z,16.43
2019-02-07T03:54:49.924Z,16.73
2019-02-07T03:57:51.819Z,15.23
2019-02-07T04:00:51.754Z,13.77
2019-02-07T04:07:08.817Z,16.73
2019-02-07T04:10:26.831Z,15.97
2019-02-07T04:16:20.066Z,16.30
2019-02-07T04:19:20.561Z,17.87
2019-02-07T04:22:20.276Z,15.70
2019-02-07T04:25:19.952Z,14.93
2019-02-07T04:28:20.553Z,18.60
2019-02-07T04:31:23.662Z,18.83
2019-02-07T04:34:23.546Z,17.03
2019-02-07T04:40:42.263Z,17.73
2019-02-07T04:43:48.966Z,18.37
2019-02-07T04:46:49.073Z,16.97
2019-02-07T04:49:49.345Z,18.57
2019-02-07T04:52:44.497Z,15.83
2019-02-07T04:55:44.389Z,17.93
2019-02-07T04:58:44.578Z,18.43
2019-02-07T05:01:44.309Z,16.63
2019-02-07T05:04:41.306Z,18.00
2019-02-07T05:07:47.666Z,17.73
2019-02-07T05:10:49.760Z,18.57
2019-02-07T05:13:51.625Z,17.20
2019-02-07T05:16:51.702Z,17.83
2019-02-07T05:19:52.033Z,15.37
2019-02-07T05:22:53.392Z,16.83
2019-02-07T05:26:00.809Z,15.53
2019-02-07T05:29:00.387Z,17.13
2019-02-07T05:32:00.928Z,17.17
2019-02-07T05:35:01.027Z,17.17
2019-02-07T05:41:21.081Z,13.13
2019-02-07T05:47:40.414Z,16.93
2019-02-07T05:50:35.778Z,16.70
2019-02-07T05:53:40.162Z,16.03
2019-02-07T05:56:37.721Z,18.23
2019-02-07T05:59:40.687Z,17.37
2019-02-07T06:02:28.458Z,18.17
2019-02-07T06:05:27.211Z,17.13
2019-02-07T06:08:34.685Z,18.40
2019-02-07T06:11:35.291Z,17.43
2019-02-07T06:14:37.047Z,17.03
2019-02-07T06:17:37.107Z,18.30
2019-02-07T06:20:37.391Z,17.97
2019-02-07T06:23:40.608Z,17.73
2019-02-07T06:26:42.666Z,17.60
2019-02-07T06:29:36.983Z,18.20
2019-02-07T06:32:37.097Z,17.73
2019-02-07T06:35:37.431Z,17.27
2019-02-07T06:38:43.608Z,17.33
2019-02-07T06:41:43.380Z,17.27
2019-02-07T06:44:50.871Z,19.20
2019-02-07T06:47:51.192Z,18.23
2019-02-07T06:50:50.888Z,17.53
2019-02-07T06:53:50.521Z,17.70
2019-02-07T06:56:57.096Z,17.37
2019-02-07T07:02:55.299Z,17.63
2019-02-07T07:05:55.640Z,17.43
2019-02-07T07:08:59.904Z,17.80
2019-02-07T07:12:06.949Z,19.13
2019-02-07T07:15:07.202Z,17.43
2019-02-07T07:18:06.146Z,17.73
2019-02-07T07:21:05.852Z,16.17
2019-02-07T07:24:05.556Z,16.07
2019-02-07T07:27:05.224Z,16.50
2019-02-07T07:30:12.641Z,12.57
2019-02-07T07:33:15.720Z,15.30
2019-02-07T07:36:08.524Z,16.30
2019-02-07T07:39:11.112Z,15.13
2019-02-07T07:42:11.521Z,14.80
2019-02-07T07:45:11.752Z,14.70
2019-02-07T07:48:17.605Z,14.27
2019-02-07T07:51:04.737Z,12.83
2019-02-07T07:54:02.823Z,16.73
2019-02-07T07:57:05.859Z,12.47
2019-02-07T08:00:08.872Z,15.17
2019-02-07T08:03:15.420Z,17.10
2019-02-07T08:06:15.627Z,14.40
2019-02-07T08:09:15.952Z,13.90
2019-02-07T08:15:28.083Z,13.83
2019-02-07T08:18:35.548Z,11.37
2019-02-07T08:21:35.246Z,15.17
2019-02-07T08:24:39.638Z,15.20
2019-02-07T08:27:39.586Z,15.13
2019-02-07T08:30:38.810Z,14.50
2019-02-07T08:33:39.357Z,14.80
2019-02-07T08:36:40.487Z,15.00
2019-02-07T08:39:32.154Z,15.67
2019-02-07T08:42:32.434Z,15.33
2019-02-07T08:45:32.809Z,13.90
2019-02-07T08:48:35.448Z,14.80
2019-02-07T08:51:38.366Z,12.90
2019-02-07T09:33:32.277Z,11.47
2019-02-07T09:36:38.485Z,12.63
2019-02-07T09:39:38.442Z,12.37
2019-02-07T09:42:29.890Z,11.40
2019-02-07T09:45:29.659Z,11.40
2019-02-07T09:51:33.733Z,11.13
2019-02-07T09:54:27.161Z,10.87
2019-02-07T09:57:30.060Z,11.23
2019-02-07T10:00:29.710Z,10.73
2019-02-07T10:03:32.836Z,10.50
2019-02-07T10:06:32.722Z,9.40
2019-02-07T10:09:32.861Z,9.17
2019-02-07T10:18:52.135Z,10.60
2019-02-07T10:21:46.296Z,8.97
2019-02-07T10:24:45.939Z,8.70
2019-02-07T10:27:39.285Z,9.30
2019-02-07T10:30:31.776Z,9.40
2019-02-07T10:33:31.377Z,8.43
2019-02-07T10:36:27.593Z,10.10
2019-02-07T10:39:27.651Z,9.47
2019-02-07T10:42:09.389Z,10.63
2019-02-07T10:45:08.361Z,9.97
2019-02-07T10:48:08.293Z,10.10
2019-02-07T10:51:07.848Z,10.97
2019-02-07T10:57:24.641Z,10.57
2019-02-07T11:00:30.531Z,9.00
2019-02-07T11:03:35.008Z,10.07
2019-02-07T11:06:27.812Z,10.53
2019-02-07T11:09:29.525Z,8.70
2019-02-07T11:12:32.425Z,9.00
2019-02-07T11:15:32.225Z,7.60
2019-02-07T11:18:34.989Z,8.13
2019-02-07T11:21:35.300Z,8.03
2019-02-07T11:24:29.601Z,8.20
2019-02-07T11:27:29.925Z,7.97
2019-02-07T11:30:31.005Z,7.60
2019-02-07T11:33:24.373Z,8.10
2019-02-07T11:36:24.358Z,7.83
2019-02-07T11:39:29.694Z,7.73
2019-02-07T11:42:20.510Z,7.37
2019-02-07T11:45:14.876Z,7.37
2019-02-07T11:48:15.361Z,7.93
2019-02-07T11:51:13.266Z,7.53
2019-02-07T11:54:13.006Z,7.50
2019-02-07T11:57:19.366Z,7.20
2019-02-07T12:00:11.286Z,7.50
2019-02-07T12:03:11.764Z,7.47
2019-02-07T12:06:03.043Z,6.90
2019-02-07T12:09:06.304Z,6.30
2019-02-07T12:12:04.556Z,6.40
2019-02-07T12:15:04.297Z,5.93
2019-02-07T12:17:58.104Z,5.83
2019-02-07T12:20:58.338Z,5.43
2019-02-07T12:23:57.740Z,5.70
2019-02-07T12:27:00.866Z,5.80
2019-02-07T12:30:01.266Z,5.67
2019-02-07T12:33:01.099Z,6.20
2019-02-07T12:35:53.636Z,6.43
2019-02-07T12:38:59.605Z,7.07
2019-02-07T12:41:49.358Z,6.93
2019-02-07T12:44:56.812Z,7.73
2019-02-07T12:47:57.155Z,7.17
2019-02-07T12:50:57.609Z,7.40
2019-02-07T12:53:59.015Z,8.13
2019-02-07T12:57:08.111Z,7.53
2019-02-07T13:00:07.914Z,6.57
2019-02-07T13:03:08.355Z,8.07
2019-02-07T13:06:02.642Z,8.30
2019-02-07T13:09:10.112Z,7.80
2019-02-07T13:12:12.944Z,8.13
2019-02-07T13:15:13.557Z,8.27
2019-02-07T13:21:27.212Z,7.60
2019-02-07T13:24:33.210Z,8.20
2019-02-07T13:27:27.254Z,6.87
2019-02-07T13:30:30.433Z,7.53
2019-02-07T13:33:30.015Z,7.33
2019-02-07T13:36:20.717Z,7.60
2019-02-07T13:39:20.293Z,6.77
2019-02-07T13:42:26.802Z,5.63
2019-02-07T13:45:26.525Z,7.50
2019-02-07T13:48:21.130Z,8.40
2019-02-07T13:51:21.260Z,8.40
2019-02-07T13:54:21.610Z,6.77
2019-02-07T13:57:22.031Z,6.37
2019-02-07T14:00:18.787Z,7.97
2019-02-07T14:03:18.438Z,7.70
2019-02-07T14:06:19.058Z,7.70
2019-02-07T14:09:16.762Z,7.63
2019-02-07T14:12:18.866Z,8.47
2019-02-07T14:15:20.434Z,8.30
2019-02-07T14:18:27.918Z,8.20
2019-02-07T14:21:27.990Z,6.17
2019-02-07T14:24:19.752Z,8.23
2019-02-07T14:27:19.648Z,8.70
2019-02-07T14:30:11.054Z,8.63
2019-02-07T14:33:11.416Z,7.87
2019-02-07T14:36:00.756Z,9.03
2019-02-07T14:38:49.140Z,9.50
2019-02-07T14:41:54.964Z,8.97
2019-02-07T14:44:55.255Z,9.10
2019-02-07T14:47:36.682Z,6.23
2019-02-07T14:50:16.667Z,9.03
2019-02-07T14:56:05.187Z,9.40
2019-02-07T14:58:46.398Z,9.33
2019-02-07T15:01:27.304Z,10.20
2019-02-07T15:04:08.641Z,10.20
2019-02-07T15:06:49.682Z,9.90
2019-02-07T15:09:30.836Z,9.93
2019-02-07T15:12:12.152Z,10.43
2019-02-07T15:14:53.491Z,9.03
2019-02-07T15:17:34.948Z,10.50
2019-02-07T15:20:25.777Z,10.67
2019-02-07T15:22:58.875Z,10.97
2019-02-07T15:25:40.371Z,11.30
2019-02-07T15:28:21.106Z,10.80
2019-02-07T15:31:02.130Z,10.60
2019-02-07T15:33:43.374Z,12.77
2019-02-07T15:36:23.010Z,12.13
2019-02-07T15:39:05.065Z,12.93
2019-02-07T15:41:46.292Z,13.27
2019-02-07T15:44:27.314Z,13.90
2019-02-07T15:47:09.208Z,14.10
2019-02-07T15:49:49.951Z,14.93
2019-02-07T15:52:30.644Z,13.60
2019-02-07T15:55:11.739Z,14.53
2019-02-07T16:01:24.888Z,15.37
2019-02-07T16:04:25.386Z,16.37
2019-02-07T16:07:06.321Z,15.30
2019-02-07T16:09:47.735Z,14.53
2019-02-07T16:12:28.607Z,15.40
2019-02-07T16:15:09.894Z,14.87
2019-02-07T16:17:51.285Z,15.87
2019-02-07T16:20:32.828Z,16.73
2019-02-07T16:23:14.148Z,14.60
2019-02-07T16:25:55.702Z,16.40
2019-02-07T16:28:37.146Z,14.63
2019-02-07T16:31:18.742Z,15.27
2019-02-07T16:34:00.344Z,15.77
2019-02-07T16:36:42.356Z,15.03
2019-02-07T16:39:23.165Z,14.23
2019-02-07T16:42:06.124Z,13.73
2019-02-07T16:44:47.280Z,15.00
2019-02-07T16:47:26.780Z,14.20
2019-02-07T16:50:07.741Z,14.57
2019-02-07T16:52:49.207Z,14.13
2019-02-07T16:55:30.467Z,14.77
2019-02-07T16:58:11.976Z,13.63
2019-02-07T17:00:53.536Z,13.87
2019-02-07T17:03:35.187Z,13.53
2019-02-07T17:06:16.661Z,14.30
2019-02-07T17:08:56.920Z,13.90
2019-02-07T17:11:37.288Z,14.30
2019-02-07T17:14:15.888Z,14.83
2019-02-07T23:43:27.592Z,28.10
2019-02-07T23:46:07.906Z,28.43
2019-02-07T23:48:48.201Z,26.60
2019-02-07T23:51:28.500Z,27.30
2019-02-07T23:54:07.021Z,28.50
2019-02-07T23:56:45.785Z,30.23
